Crown II — 9HA3829 — position and weather

sailwx.info

Track history (hours):
 
Tides and Currents Weather Stations Pressure Air Temp Water Temp Dewpoint Dewpoint Depression Visibility Wind Speed Wind Dir Waves Ship Positions

Crown II

Last reported at 2018-Jul-20 12:19 UTC. Time now 2018-Jul-20 16:13 UTC.
Position N 40°01' E 026°12'.

Length 183 m; draft 8 m.

Type: Tanker. MMSI: 256123000.

Date/timePositionNaut miles runAvg speedWind from/ knotsBaromVisibWave heightAir tempDewpointWater temp
2018-Jul-20 12:19N 40°01' E 026°12'5 8.9
2018-Jul-20 11:47N 39°60' E 026°06'4 9.3
2018-Jul-20 11:19N 39°59' E 026°01'10 0.3
2018-Jul-18 19:06N 39°49' E 025°57'0 0.1
2018-Jul-18 18:48N 39°49' E 025°57'0 0.4
2018-Jul-18 18:30N 39°49' E 025°57'18712.7
2018-Jul-18 03:45N 37°10' E 023°50'38813.4
2018-Jul-16 22:48N 36°05' E 015°54'414.1
2018-Jul-16 22:30N 36°05' E 015°48'1614.1
2018-Jul-16 21:23N 36°04' E 015°29'514.5
2018-Jul-16 21:00N 36°04' E 015°22'714.4
2018-Jul-16 20:30N 36°04' E 015°13'714.0
2018-Jul-16 20:00N 36°03' E 015°05'713.7
2018-Jul-16 19:29N 36°03' E 014°56'713.5
2018-Jul-16 18:59N 36°04' E 014°48'1 2.3
2018-Jul-16 18:30N 36°04' E 014°47'0 0.6
2018-Jul-16 18:00N 36°04' E 014°47'0 0.6
2018-Jul-16 17:30N 36°05' E 014°47'0 0.5
2018-Jul-16 16:59N 36°05' E 014°48'0 0.7
2018-Jul-16 16:30N 36°05' E 014°48'0 0.7
2018-Jul-16 16:00N 36°05' E 014°48'0 0.6
2018-Jul-16 15:29N 36°05' E 014°49'0 0.9
2018-Jul-16 15:00N 36°05' E 014°48'2 3.5
2018-Jul-16 14:31N 36°03' E 014°47'2 3.5
2018-Jul-16 14:00N 36°02' E 014°46'0 0.7
2018-Jul-16 13:31N 36°02' E 014°45'0 0.8
2018-Jul-16 13:00N 36°02' E 014°46'0 0.9
2018-Jul-16 12:30N 36°03' E 014°46'0 0.9
2018-Jul-16 12:00N 36°03' E 014°46'0 0.9
2018-Jul-16 11:30N 36°03' E 014°47'0 0.9
2018-Jul-16 11:00N 36°04' E 014°47'0 0.9
2018-Jul-16 10:31N 36°04' E 014°47'0 0.9
2018-Jul-16 10:01N 36°05' E 014°47'0 0.7
2018-Jul-16 09:31N 36°05' E 014°47'1 2.2
2018-Jul-16 09:00N 36°04' E 014°47'2 3.5
2018-Jul-16 08:30N 36°02' E 014°48'2 3.7
2018-Jul-16 08:00N 36°00' E 014°48'2 3.8
2018-Jul-16 07:30N 35°59' E 014°49'2 3.8
2018-Jul-16 07:00N 35°57' E 014°49'1 1.1
2018-Jul-16 06:25N 35°56' E 014°50'1 0.0
2018-Jul-14 10:57N 35°55' E 014°51'0 0.1
2018-Jul-14 10:29N 35°55' E 014°51'0 0.0
2018-Jul-14 09:59N 35°55' E 014°51'0 0.0
2018-Jul-14 09:29N 35°55' E 014°51'0 0.0
2018-Jul-14 08:59N 35°55' E 014°51'0 0.0
2018-Jul-14 08:27N 35°55' E 014°51'0 0.0
2018-Jul-14 07:59N 35°55' E 014°51'0 0.0
2018-Jul-14 07:29N 35°55' E 014°51'0 0.0
2018-Jul-14 06:59N 35°55' E 014°51'0 0.0
2018-Jul-14 06:29N 35°55' E 014°51'0 0.0
2018-Jul-14 05:59N 35°55' E 014°51'0 0.1
2018-Jul-14 05:29N 35°55' E 014°51'0 0.1
2018-Jul-14 05:00N 35°55' E 014°51'2 4.1
2018-Jul-14 04:30N 35°54' E 014°53'611.1
2018-Jul-14 04:00N 35°48' E 014°54'612.5
2018-Jul-14 03:30N 35°42' E 014°53'612.3
2018-Jul-14 03:00N 35°38' E 014°47'713.3
2018-Jul-14 02:30N 35°35' E 014°40'713.2
2018-Jul-14 02:00N 35°31' E 014°33'1113.3
2018-Jul-14 01:11N 35°26' E 014°22'313.1
2018-Jul-14 00:55N 35°23' E 014°18'1213.1
2018-Jul-13 23:59N 35°17' E 014°05'613.0
2018-Jul-13 23:30N 35°14' E 013°59'713.2
2018-Jul-13 23:00N 35°09' E 013°53'713.3
2018-Jul-13 22:30N 35°05' E 013°47'713.2
2018-Jul-13 22:00N 35°02' E 013°40'713.1
2018-Jul-13 21:30N 34°58' E 013°33'713.1
2018-Jul-13 21:00N 34°54' E 013°27'713.3
2018-Jul-13 20:29N 34°50' E 013°20'713.6
2018-Jul-13 20:00N 34°46' E 013°14'813.5
2018-Jul-13 19:23N 34°41' E 013°05'613.5
2018-Jul-13 18:56N 34°38' E 012°59'613.6
2018-Jul-13 18:30N 34°35' E 012°53'713.7
2018-Jul-13 18:00N 34°31' E 012°46'1613.4
2018-Jul-13 16:46N 34°23' E 012°29'413.3
2018-Jul-13 16:30N 34°22' E 012°25'713.2
2018-Jul-13 16:00N 34°21' E 012°17'713.7
2018-Jul-13 15:30N 34°19' E 012°09'713.9
2018-Jul-13 15:00N 34°17' E 012°01'713.4
2018-Jul-13 14:30N 34°16' E 011°53'1312.8
2018-Jul-13 13:30N 34°13' E 011°38'612.6
2018-Jul-13 13:00N 34°12' E 011°30'612.6
2018-Jul-13 12:31N 34°12' E 011°23'612.4
2018-Jul-13 12:00N 34°11' E 011°15'1412.4
2018-Jul-13 10:52N 34°10' E 010°58'512.6
2018-Jul-13 10:30N 34°09' E 010°53'612.6
2018-Jul-13 09:59N 34°08' E 010°45'612.9
2018-Jul-13 09:31N 34°07' E 010°38'612.9
2018-Jul-13 09:00N 34°06' E 010°30'1812.7
2018-Jul-13 07:33N 34°12' E 010°09'112.6
2018-Jul-13 07:28N 34°13' E 010°08'510.5
2018-Jul-13 07:00N 34°18' E 010°09'0 0.3
2018-Jul-13 05:43N 34°18' E 010°09'0 0.0
2018-Jul-13 04:22N 34°18' E 010°09'0 0.0
2018-Jul-13 03:25N 34°18' E 010°09'0 0.0
2018-Jul-12 23:37N 34°18' E 010°09'0 0.0
2018-Jul-12 23:25N 34°18' E 010°09'0 0.0
2018-Jul-12 15:37N 34°18' E 010°09'0 0.0
2018-Jul-12 15:28N 34°18' E 010°09'0 0.0
2018-Jul-12 14:46N 34°18' E 010°09'0 0.0
2018-Jul-12 14:25N 34°18' E 010°09'0 0.0
2018-Jul-12 13:55N 34°18' E 010°09'0 0.0
2018-Jul-12 13:13N 34°18' E 010°09'0 0.0
2018-Jul-12 12:58N 34°18' E 010°09'0 0.0
2018-Jul-12 12:25N 34°18' E 010°09'0 0.0
2018-Jul-12 11:55N 34°18' E 010°09'0 0.0
2018-Jul-12 11:19N 34°18' E 010°09'0 0.0
2018-Jul-12 10:55N 34°18' E 010°09'0 0.0
2018-Jul-12 10:28N 34°18' E 010°09'0 0.0
2018-Jul-12 08:09N 34°18' E 010°09'30 0.7
2018-Jul-10 13:56N 34°08' E 010°43'  
Track history (hours):
 
Tides and Currents Weather Stations Pressure Air Temp Water Temp Dewpoint Dewpoint Depression Visibility Wind Speed Wind Dir Waves Ship Positions

Crown II

Last reported at 2018-Jul-20 12:19 UTC. Time now 2018-Jul-20 16:13 UTC.
Position N 40°01' E 026°12'.

Length 183 m; draft 8 m.

Type: Tanker. MMSI: 256123000.

Date/timePositionNaut miles runAvg speedWind from/ knotsBaromVisibWave heightAir tempDewpointWater temp
2018-Jul-20 12:19N 40°01' E 026°12'5 8.9
2018-Jul-20 11:47N 39°60' E 026°06'4 9.3
2018-Jul-20 11:19N 39°59' E 026°01'10 0.3
2018-Jul-18 19:06N 39°49' E 025°57'0 0.1
2018-Jul-18 18:48N 39°49' E 025°57'0 0.4
2018-Jul-18 18:30N 39°49' E 025°57'18712.7
2018-Jul-18 03:45N 37°10' E 023°50'38813.4
2018-Jul-16 22:48N 36°05' E 015°54'414.1
2018-Jul-16 22:30N 36°05' E 015°48'1614.1
2018-Jul-16 21:23N 36°04' E 015°29'514.5
2018-Jul-16 21:00N 36°04' E 015°22'714.4
2018-Jul-16 20:30N 36°04' E 015°13'714.0
2018-Jul-16 20:00N 36°03' E 015°05'713.7
2018-Jul-16 19:29N 36°03' E 014°56'713.5
2018-Jul-16 18:59N 36°04' E 014°48'1 2.3
2018-Jul-16 18:30N 36°04' E 014°47'0 0.6
2018-Jul-16 18:00N 36°04' E 014°47'0 0.6
2018-Jul-16 17:30N 36°05' E 014°47'0 0.5
2018-Jul-16 16:59N 36°05' E 014°48'0 0.7
2018-Jul-16 16:30N 36°05' E 014°48'0 0.7
2018-Jul-16 16:00N 36°05' E 014°48'0 0.6
2018-Jul-16 15:29N 36°05' E 014°49'0 0.9
2018-Jul-16 15:00N 36°05' E 014°48'2 3.5
2018-Jul-16 14:31N 36°03' E 014°47'2 3.5
2018-Jul-16 14:00N 36°02' E 014°46'0 0.7
2018-Jul-16 13:31N 36°02' E 014°45'0 0.8
2018-Jul-16 13:00N 36°02' E 014°46'0 0.9
2018-Jul-16 12:30N 36°03' E 014°46'0 0.9
2018-Jul-16 12:00N 36°03' E 014°46'0 0.9
2018-Jul-16 11:30N 36°03' E 014°47'0 0.9
2018-Jul-16 11:00N 36°04' E 014°47'0 0.9
2018-Jul-16 10:31N 36°04' E 014°47'0 0.9
2018-Jul-16 10:01N 36°05' E 014°47'0 0.7
2018-Jul-16 09:31N 36°05' E 014°47'1 2.2
2018-Jul-16 09:00N 36°04' E 014°47'2 3.5
2018-Jul-16 08:30N 36°02' E 014°48'2 3.7
2018-Jul-16 08:00N 36°00' E 014°48'2 3.8
2018-Jul-16 07:30N 35°59' E 014°49'2 3.8
2018-Jul-16 07:00N 35°57' E 014°49'1 1.1
2018-Jul-16 06:25N 35°56' E 014°50'1 0.0
2018-Jul-14 10:57N 35°55' E 014°51'0 0.1
2018-Jul-14 10:29N 35°55' E 014°51'0 0.0
2018-Jul-14 09:59N 35°55' E 014°51'0 0.0
2018-Jul-14 09:29N 35°55' E 014°51'0 0.0
2018-Jul-14 08:59N 35°55' E 014°51'0 0.0
2018-Jul-14 08:27N 35°55' E 014°51'0 0.0
2018-Jul-14 07:59N 35°55' E 014°51'0 0.0
2018-Jul-14 07:29N 35°55' E 014°51'0 0.0
2018-Jul-14 06:59N 35°55' E 014°51'0 0.0
2018-Jul-14 06:29N 35°55' E 014°51'0 0.0
2018-Jul-14 05:59N 35°55' E 014°51'0 0.1
2018-Jul-14 05:29N 35°55' E 014°51'0 0.1
2018-Jul-14 05:00N 35°55' E 014°51'2 4.1
2018-Jul-14 04:30N 35°54' E 014°53'611.1
2018-Jul-14 04:00N 35°48' E 014°54'612.5
2018-Jul-14 03:30N 35°42' E 014°53'612.3
2018-Jul-14 03:00N 35°38' E 014°47'713.3
2018-Jul-14 02:30N 35°35' E 014°40'713.2
2018-Jul-14 02:00N 35°31' E 014°33'1113.3
2018-Jul-14 01:11N 35°26' E 014°22'313.1
2018-Jul-14 00:55N 35°23' E 014°18'1213.1
2018-Jul-13 23:59N 35°17' E 014°05'613.0
2018-Jul-13 23:30N 35°14' E 013°59'713.2
2018-Jul-13 23:00N 35°09' E 013°53'713.3
2018-Jul-13 22:30N 35°05' E 013°47'713.2
2018-Jul-13 22:00N 35°02' E 013°40'713.1
2018-Jul-13 21:30N 34°58' E 013°33'713.1
2018-Jul-13 21:00N 34°54' E 013°27'713.3
2018-Jul-13 20:29N 34°50' E 013°20'713.6
2018-Jul-13 20:00N 34°46' E 013°14'813.5
2018-Jul-13 19:23N 34°41' E 013°05'613.5
2018-Jul-13 18:56N 34°38' E 012°59'613.6
2018-Jul-13 18:30N 34°35' E 012°53'713.7
2018-Jul-13 18:00N 34°31' E 012°46'1613.4
2018-Jul-13 16:46N 34°23' E 012°29'413.3
2018-Jul-13 16:30N 34°22' E 012°25'713.2
2018-Jul-13 16:00N 34°21' E 012°17'713.7
2018-Jul-13 15:30N 34°19' E 012°09'713.9
2018-Jul-13 15:00N 34°17' E 012°01'713.4
2018-Jul-13 14:30N 34°16' E 011°53'1312.8
2018-Jul-13 13:30N 34°13' E 011°38'612.6
2018-Jul-13 13:00N 34°12' E 011°30'612.6
2018-Jul-13 12:31N 34°12' E 011°23'612.4
2018-Jul-13 12:00N 34°11' E 011°15'1412.4
2018-Jul-13 10:52N 34°10' E 010°58'512.6
2018-Jul-13 10:30N 34°09' E 010°53'612.6
2018-Jul-13 09:59N 34°08' E 010°45'612.9
2018-Jul-13 09:31N 34°07' E 010°38'612.9
2018-Jul-13 09:00N 34°06' E 010°30'1812.7
2018-Jul-13 07:33N 34°12' E 010°09'112.6
2018-Jul-13 07:28N 34°13' E 010°08'510.5
2018-Jul-13 07:00N 34°18' E 010°09'0 0.3
2018-Jul-13 05:43N 34°18' E 010°09'0 0.0
2018-Jul-13 04:22N 34°18' E 010°09'0 0.0
2018-Jul-13 03:25N 34°18' E 010°09'0 0.0
2018-Jul-12 23:37N 34°18' E 010°09'0 0.0
2018-Jul-12 23:25N 34°18' E 010°09'0 0.0
2018-Jul-12 15:37N 34°18' E 010°09'0 0.0
2018-Jul-12 15:28N 34°18' E 010°09'0 0.0
2018-Jul-12 14:46N 34°18' E 010°09'0 0.0
2018-Jul-12 14:25N 34°18' E 010°09'0 0.0
2018-Jul-12 13:55N 34°18' E 010°09'0 0.0
2018-Jul-12 13:13N 34°18' E 010°09'0 0.0
2018-Jul-12 12:58N 34°18' E 010°09'0 0.0
2018-Jul-12 12:25N 34°18' E 010°09'0 0.0
2018-Jul-12 11:55N 34°18' E 010°09'0 0.0
2018-Jul-12 11:19N 34°18' E 010°09'0 0.0
2018-Jul-12 10:55N 34°18' E 010°09'0 0.0
2018-Jul-12 10:28N 34°18' E 010°09'0 0.0
2018-Jul-12 08:09N 34°18' E 010°09'30 0.7
2018-Jul-10 13:56N 34°08' E 010°43'  

Dump ship's entire track history